createdAt,value
2018-02-18T00:00:54.063Z,-2.65
2018-02-18T00:01:54.323Z,-2.62
2018-02-18T00:02:53.965Z,-2.64
2018-02-18T00:03:53.919Z,-2.65
2018-02-18T00:04:53.864Z,-2.66
2018-02-18T00:05:53.825Z,-2.69
2018-02-18T00:06:53.767Z,-2.62
2018-02-18T00:07:53.716Z,-2.50
2018-02-18T00:08:53.967Z,-2.48
2018-02-18T00:09:53.817Z,-2.55
2018-02-18T00:10:53.571Z,-2.58
2018-02-18T00:11:53.516Z,-2.64
2018-02-18T00:12:53.475Z,-2.71
2018-02-18T00:13:53.426Z,-2.64
2018-02-18T00:14:53.374Z,-2.58
2018-02-18T00:15:53.671Z,-2.61
2018-02-18T00:16:53.270Z,-2.62
2018-02-18T00:17:53.220Z,-2.65
2018-02-18T00:18:53.169Z,-2.83
2018-02-18T00:19:53.123Z,-2.87
2018-02-18T00:20:53.070Z,-2.64
2018-02-18T00:21:53.273Z,-2.66
2018-02-18T00:22:53.273Z,-2.68
2018-02-18T00:23:52.920Z,-2.56
2018-02-18T00:24:52.873Z,-2.56
2018-02-18T00:25:52.827Z,-2.55
2018-02-18T00:26:52.771Z,-2.59
2018-02-18T00:27:52.730Z,-2.50
2018-02-18T00:28:52.674Z,-2.51
2018-02-18T00:29:52.927Z,-2.48
2018-02-18T00:30:52.573Z,-2.55
2018-02-18T00:31:52.527Z,-2.66
2018-02-18T00:32:52.473Z,-2.74
2018-02-18T00:33:52.425Z,-2.77
2018-02-18T00:34:52.376Z,-2.66
2018-02-18T00:35:52.325Z,-2.66
2018-02-18T00:36:52.576Z,-2.69
2018-02-18T00:37:52.226Z,-2.58
2018-02-18T00:38:52.191Z,-2.69
2018-02-18T00:39:52.126Z,-2.80
2018-02-18T00:40:52.089Z,-2.76
2018-02-18T00:41:52.028Z,-2.69
2018-02-18T00:42:52.278Z,-2.74
2018-02-18T00:43:51.928Z,-2.79
2018-02-18T00:44:51.880Z,-2.82
2018-02-18T00:45:51.831Z,-2.87
2018-02-18T00:46:51.778Z,-2.87
2018-02-18T00:47:51.735Z,-2.87
2018-02-18T00:48:52.132Z,-2.80
2018-02-18T00:49:51.630Z,-2.89
2018-02-18T00:50:51.582Z,-2.76
2018-02-18T00:51:51.580Z,-2.76
2018-02-18T00:52:51.479Z,-2.74
2018-02-18T00:53:51.431Z,-2.82
2018-02-18T00:54:51.681Z,-2.97
2018-02-18T00:55:51.331Z,-3.00
2018-02-18T00:56:51.281Z,-3.02
2018-02-18T00:57:51.234Z,-2.98
2018-02-18T00:58:51.184Z,-3.00
2018-02-18T00:59:51.181Z,-2.93
2018-02-18T01:00:51.383Z,-2.93
2018-02-18T01:01:51.033Z,-2.95
2018-02-18T01:02:50.984Z,-2.90
2018-02-18T01:03:50.935Z,-2.93
2018-02-18T01:04:50.884Z,-2.94
2018-02-18T01:05:50.883Z,-2.89
2018-02-18T01:06:51.084Z,-2.98
2018-02-18T01:07:50.734Z,-2.97
2018-02-18T01:08:50.691Z,-2.94
2018-02-18T01:09:50.636Z,-3.12
2018-02-18T01:10:50.584Z,-3.08
2018-02-18T01:11:50.584Z,-3.21
2018-02-18T01:12:50.482Z,-3.26
2018-02-18T01:13:50.732Z,-3.18
2018-02-18T01:14:50.383Z,-3.21
2018-02-18T01:15:50.334Z,-3.18
2018-02-18T01:16:50.284Z,-3.22
2018-02-18T01:17:50.234Z,-3.21
2018-02-18T01:18:50.184Z,-3.15
2018-02-18T01:19:50.134Z,-3.18
2018-02-18T01:20:50.383Z,-3.19
2018-02-18T01:21:50.037Z,-3.28
2018-02-18T01:22:49.984Z,-3.18
2018-02-18T01:23:49.933Z,-3.16
2018-02-18T01:24:49.883Z,-3.21
2018-02-18T01:25:49.835Z,-3.21
2018-02-18T01:26:49.783Z,-3.10
2018-02-18T01:27:50.037Z,-3.18
2018-02-18T01:28:49.683Z,-3.16
2018-02-18T01:29:49.638Z,-3.15
2018-02-18T01:30:49.584Z,-3.05
2018-02-18T01:31:49.536Z,-3.01
2018-02-18T01:32:49.536Z,-3.04
2018-02-18T01:33:49.439Z,-3.00
2018-02-18T01:34:49.684Z,-2.93
2018-02-18T01:35:49.336Z,-2.87
2018-02-18T01:36:49.287Z,-2.97
2018-02-18T01:37:49.234Z,-2.98
2018-02-18T01:38:49.234Z,-2.93
2018-02-18T01:39:49.139Z,-2.89
2018-02-18T01:40:49.085Z,-2.89
2018-02-18T01:41:49.340Z,-2.83
2018-02-18T01:42:48.985Z,-2.83
2018-02-18T01:43:48.938Z,-2.66
2018-02-18T01:44:48.885Z,-2.71
2018-02-18T01:45:48.841Z,-2.72
2018-02-18T01:46:48.785Z,-2.89
2018-02-18T01:47:48.734Z,-2.93
2018-02-18T01:48:48.987Z,-2.95
2018-02-18T01:49:48.636Z,-2.83
2018-02-18T01:50:48.587Z,-2.94
2018-02-18T01:51:48.535Z,-2.83
2018-02-18T01:52:48.484Z,-2.83
2018-02-18T01:53:48.435Z,-2.66
2018-02-18T01:54:48.687Z,-2.65
2018-02-18T01:55:48.337Z,-2.66
2018-02-18T01:56:48.287Z,-2.66
2018-02-18T01:57:48.236Z,-2.62
2018-02-18T01:58:48.185Z,-2.56
2018-02-18T01:59:48.135Z,-2.64
2018-02-18T02:00:48.437Z,-2.68
2018-02-18T02:01:48.035Z,-2.83
2018-02-18T02:02:47.985Z,-2.83
2018-02-18T02:03:47.936Z,-2.93
2018-02-18T02:04:47.885Z,-2.83
2018-02-18T02:05:47.836Z,-2.87
2018-02-18T02:06:48.199Z,-2.87
2018-02-18T02:07:47.734Z,-2.94
2018-02-18T02:08:47.691Z,-2.93
2018-02-18T02:09:47.652Z,-2.90
2018-02-18T02:10:47.583Z,-2.87
2018-02-18T02:11:47.541Z,-2.87
2018-02-18T02:12:47.783Z,-2.93
2018-02-18T02:13:47.434Z,-2.90
2018-02-18T02:14:47.385Z,-2.90
2018-02-18T02:15:47.339Z,-3.05
2018-02-18T02:16:47.284Z,-3.04
2018-02-18T02:17:47.233Z,-3.10
2018-02-18T02:18:47.484Z,-3.19
2018-02-18T02:19:47.354Z,-3.19
2018-02-18T02:20:47.083Z,-3.25
2018-02-18T02:21:47.035Z,-3.31
2018-02-18T02:22:46.988Z,-3.16
2018-02-18T02:23:46.934Z,-3.15
2018-02-18T02:24:46.882Z,-3.18
2018-02-18T02:25:47.134Z,-3.21
2018-02-18T02:26:46.783Z,-3.15
2018-02-18T02:27:46.735Z,-3.10
2018-02-18T02:28:46.682Z,-3.12
2018-02-18T02:29:46.633Z,-3.04
2018-02-18T02:30:46.583Z,-3.25
2018-02-18T02:31:46.535Z,-3.25
2018-02-18T02:32:46.792Z,-3.12
2018-02-18T02:33:46.433Z,-3.15
2018-02-18T02:34:46.587Z,-3.19
2018-02-18T02:35:46.333Z,-3.22
2018-02-18T02:36:46.283Z,-3.30
2018-02-18T02:37:46.232Z,-3.34
2018-02-18T02:38:46.182Z,-3.31
2018-02-18T02:39:46.433Z,-3.26
2018-02-18T02:40:46.083Z,-3.31
2018-02-18T02:41:46.035Z,-3.22
2018-02-18T02:42:45.981Z,-3.31
2018-02-18T02:43:45.934Z,-3.19
2018-02-18T02:44:45.887Z,-3.15
2018-02-18T02:45:45.832Z,-3.15
2018-02-18T02:46:46.082Z,-3.21
2018-02-18T02:47:45.732Z,-3.04
2018-02-18T02:48:45.681Z,-3.05
2018-02-18T02:49:45.632Z,-3.08
2018-02-18T02:50:45.580Z,-3.10
2018-02-18T02:51:45.631Z,-3.13
2018-02-18T02:52:45.483Z,-3.15
2018-02-18T02:53:45.729Z,-3.19
2018-02-18T02:54:45.381Z,-3.16
2018-02-18T02:55:45.335Z,-3.15
2018-02-18T02:56:45.281Z,-3.10
2018-02-18T02:57:45.229Z,-3.23
2018-02-18T02:58:45.180Z,-3.26
2018-02-18T02:59:45.444Z,-3.22
2018-02-18T03:00:45.080Z,-3.23
2018-02-18T03:01:45.030Z,-3.25
2018-02-18T03:02:44.985Z,-3.30
2018-02-18T03:03:44.937Z,-3.33
2018-02-18T03:04:44.890Z,-3.22
2018-02-18T03:05:45.132Z,-3.18
2018-02-18T03:06:44.777Z,-3.30
2018-02-18T03:07:44.734Z,-3.19
2018-02-18T03:08:44.678Z,-3.23
2018-02-18T03:09:44.632Z,-3.28
2018-02-18T03:10:44.578Z,-3.36
2018-02-18T03:11:44.828Z,-3.22
2018-02-18T03:12:44.477Z,-3.30
2018-02-18T03:13:44.435Z,-3.15
2018-02-18T03:14:44.376Z,-3.13
2018-02-18T03:15:44.326Z,-3.19
2018-02-18T03:16:44.277Z,-3.21
2018-02-18T03:17:44.527Z,-3.13
2018-02-18T03:18:44.185Z,-3.07
2018-02-18T03:19:44.124Z,-3.05
2018-02-18T03:20:44.080Z,-3.01
2018-02-18T03:21:44.040Z,-3.08
2018-02-18T03:22:43.975Z,-3.16
2018-02-18T03:23:44.225Z,-3.01
2018-02-18T03:24:43.875Z,-3.07
2018-02-18T03:25:43.824Z,-3.00
2018-02-18T03:26:43.774Z,-2.97
2018-02-18T03:27:43.725Z,-2.97
2018-02-18T03:28:43.673Z,-2.90
2018-02-18T03:29:43.627Z,-2.87
2018-02-18T03:30:43.875Z,-2.97
2018-02-18T03:31:43.522Z,-2.89
2018-02-18T03:32:43.474Z,-2.94
2018-02-18T03:33:43.427Z,-2.93
2018-02-18T03:34:43.371Z,-2.86
2018-02-18T03:35:43.320Z,-2.97
2018-02-18T03:36:43.273Z,-2.87
2018-02-18T03:37:43.571Z,-2.68
2018-02-18T03:38:43.168Z,-2.62
2018-02-18T03:39:43.126Z,-2.51
2018-02-18T03:40:43.075Z,-2.44
2018-02-18T03:41:43.021Z,-2.40
2018-02-18T03:42:42.972Z,-2.40
2018-02-18T03:43:42.972Z,-2.41
2018-02-18T03:44:43.169Z,-2.47
2018-02-18T03:45:42.828Z,-2.46
2018-02-18T03:46:42.774Z,-2.50
2018-02-18T03:47:42.719Z,-2.46
2018-02-18T03:48:42.669Z,-2.51
2018-02-18T03:49:42.675Z,-2.55
2018-02-18T03:50:42.569Z,-2.59
2018-02-18T03:51:42.817Z,-2.55
2018-02-18T03:52:42.468Z,-2.56
2018-02-18T03:53:42.417Z,-2.71
2018-02-18T03:54:42.368Z,-2.66
2018-02-18T03:55:42.320Z,-2.71
2018-02-18T03:56:42.268Z,-2.71
2018-02-18T03:57:42.217Z,-2.68
2018-02-18T03:58:42.471Z,-2.65
2018-02-18T03:59:42.117Z,-2.74
2018-02-18T04:00:42.118Z,-2.69
2018-02-18T04:01:42.016Z,-2.69
2018-02-18T04:02:41.965Z,-2.61
2018-02-18T04:03:41.918Z,-2.71
2018-02-18T04:04:41.867Z,-2.74
2018-02-18T04:05:42.117Z,-2.80
2018-02-18T04:06:41.817Z,-2.74
2018-02-18T04:07:41.717Z,-2.71
2018-02-18T04:08:41.664Z,-2.82
2018-02-18T04:09:41.617Z,-2.65
2018-02-18T04:10:41.568Z,-2.71
2018-02-18T04:11:41.815Z,-2.61
2018-02-18T04:12:41.515Z,-2.62
2018-02-18T04:13:41.413Z,-2.68
2018-02-18T04:14:41.368Z,-2.56
2018-02-18T04:15:41.316Z,-2.56
2018-02-18T04:16:41.265Z,-2.59
2018-02-18T04:17:41.515Z,-2.58
2018-02-18T04:18:41.170Z,-2.68
2018-02-18T04:19:41.117Z,-2.59
2018-02-18T04:20:41.063Z,-2.59
2018-02-18T04:21:41.023Z,-2.62
2018-02-18T04:22:40.962Z,-2.59
2018-02-18T04:23:41.215Z,-2.53
2018-02-18T04:24:40.864Z,-2.53
2018-02-18T04:25:40.813Z,-2.43
2018-02-18T04:26:40.763Z,-2.58
2018-02-18T04:27:40.713Z,-2.47
2018-02-18T04:28:40.664Z,-2.55
2018-02-18T04:29:40.914Z,-2.48
2018-02-18T04:30:40.561Z,-2.56
2018-02-18T04:31:40.511Z,-2.68
2018-02-18T04:32:40.462Z,-2.47
2018-02-18T04:33:40.410Z,-2.38
2018-02-18T04:34:40.363Z,-2.44
2018-02-18T04:35:40.615Z,-2.35
2018-02-18T04:36:40.261Z,-2.41
2018-02-18T04:37:40.215Z,-2.48
2018-02-18T04:38:40.166Z,-2.44
2018-02-18T04:39:40.110Z,-2.43
2018-02-18T04:40:40.059Z,-2.47
2018-02-18T04:41:40.011Z,-2.48
2018-02-18T04:42:40.267Z,-2.50
2018-02-18T04:43:39.909Z,-2.51
2018-02-18T04:44:39.861Z,-2.62
2018-02-18T04:45:39.814Z,-2.66
2018-02-18T04:46:39.760Z,-2.56
2018-02-18T04:47:39.711Z,-2.55
2018-02-18T04:48:39.662Z,-2.47
2018-02-18T04:49:39.911Z,-2.35
2018-02-18T04:50:39.559Z,-2.29
2018-02-18T04:51:39.509Z,-2.37
2018-02-18T04:52:39.464Z,-2.40
2018-02-18T04:53:39.412Z,-2.33
2018-02-18T04:54:39.359Z,-2.41
2018-02-18T04:55:39.308Z,-2.48
2018-02-18T04:56:39.561Z,-2.43
2018-02-18T04:57:39.207Z,-2.33
2018-02-18T04:58:39.158Z,-2.40
2018-02-18T04:59:39.114Z,-2.28
2018-02-18T05:00:39.058Z,-2.26
2018-02-18T05:01:39.012Z,-2.40
2018-02-18T05:02:38.958Z,-2.37
2018-02-18T05:03:39.357Z,-2.41
2018-02-18T05:04:38.857Z,-2.43
2018-02-18T05:05:38.806Z,-2.48
2018-02-18T05:06:38.759Z,-2.51
2018-02-18T05:07:38.705Z,-2.56
2018-02-18T05:08:38.663Z,-2.62
2018-02-18T05:09:38.655Z,-2.65
2018-02-18T05:10:38.856Z,-2.64
2018-02-18T05:11:38.506Z,-2.62
2018-02-18T05:12:38.459Z,-2.62
2018-02-18T05:13:38.404Z,-2.61
2018-02-18T05:14:38.356Z,-2.62
2018-02-18T05:15:38.310Z,-2.65
2018-02-18T05:16:38.560Z,-2.58
2018-02-18T05:17:38.204Z,-2.58
2018-02-18T05:18:38.154Z,-2.62
2018-02-18T05:19:38.105Z,-2.62
2018-02-18T05:20:38.057Z,-2.62
2018-02-18T05:21:38.006Z,-2.64
2018-02-18T05:22:38.254Z,-2.55
2018-02-18T05:23:37.906Z,-2.58
2018-02-18T05:24:37.854Z,-2.56
2018-02-18T05:25:37.802Z,-2.59
2018-02-18T05:26:37.756Z,-2.66
2018-02-18T05:27:37.704Z,-2.71
2018-02-18T05:28:37.955Z,-2.79
2018-02-18T05:29:37.605Z,-2.80
2018-02-18T05:30:37.552Z,-2.80
2018-02-18T05:31:37.508Z,-2.87
2018-02-18T05:32:37.457Z,-2.77
2018-02-18T05:33:37.407Z,-2.86
2018-02-18T05:34:37.651Z,-2.65
2018-02-18T05:35:37.302Z,-2.56
2018-02-18T05:36:37.253Z,-2.59
2018-02-18T05:37:37.201Z,-2.58
2018-02-18T05:38:37.150Z,-2.58
2018-02-18T05:39:37.100Z,-2.62
2018-02-18T05:40:37.349Z,-2.59
2018-02-18T05:41:37.001Z,-2.56
2018-02-18T05:42:36.949Z,-2.48
2018-02-18T05:43:36.910Z,-2.46
2018-02-18T05:44:36.854Z,-2.51
2018-02-18T05:45:36.802Z,-2.48
2018-02-18T05:46:36.798Z,-2.59
2018-02-18T05:47:37.004Z,-2.58
2018-02-18T05:48:36.651Z,-2.72
2018-02-18T05:49:36.606Z,-2.68
2018-02-18T05:50:36.550Z,-2.68
2018-02-18T05:51:36.498Z,-2.66
2018-02-18T05:52:36.498Z,-2.69
2018-02-18T05:53:36.398Z,-2.71
2018-02-18T05:54:36.657Z,-2.68
2018-02-18T05:55:36.299Z,-2.71
2018-02-18T05:56:36.247Z,-2.65
2018-02-18T05:57:36.197Z,-2.68
2018-02-18T05:58:36.246Z,-2.71
2018-02-18T05:59:36.096Z,-2.80
2018-02-18T06:00:36.047Z,-2.90
2018-02-18T06:01:36.296Z,-2.87
2018-02-18T06:02:35.946Z,-3.00
2018-02-18T06:03:35.895Z,-3.05
2018-02-18T06:04:36.048Z,-3.16
2018-02-18T06:05:35.795Z,-3.16
2018-02-18T06:06:35.749Z,-3.18
2018-02-18T06:07:35.698Z,-3.12
2018-02-18T06:08:35.944Z,-3.10
2018-02-18T06:09:35.594Z,-3.01
2018-02-18T06:10:35.543Z,-3.00
2018-02-18T06:11:35.495Z,-2.95
2018-02-18T06:12:35.441Z,-2.90
2018-02-18T06:13:35.394Z,-2.93
2018-02-18T06:14:35.355Z,-2.82
2018-02-18T06:15:35.593Z,-2.84
2018-02-18T06:16:35.244Z,-2.83
2018-02-18T06:17:35.190Z,-2.89
2018-02-18T06:18:35.143Z,-2.90
2018-02-18T06:19:35.096Z,-2.97
2018-02-18T06:20:35.039Z,-2.98
2018-02-18T06:21:34.990Z,-3.04
2018-02-18T06:22:35.243Z,-3.08
2018-02-18T06:23:34.891Z,-2.98
2018-02-18T06:24:34.838Z,-2.90
2018-02-18T06:25:34.792Z,-2.94
2018-02-18T06:26:34.739Z,-2.98
2018-02-18T06:27:34.691Z,-2.97
2018-02-18T06:28:34.938Z,-3.10
2018-02-18T06:29:34.589Z,-3.13
2018-02-18T06:30:34.538Z,-3.12
2018-02-18T06:31:34.489Z,-3.21
2018-02-18T06:32:34.442Z,-3.33
2018-02-18T06:33:34.386Z,-3.40
2018-02-18T06:34:34.638Z,-3.37
2018-02-18T06:35:34.286Z,-3.40
2018-02-18T06:36:34.233Z,-3.44
2018-02-18T06:37:34.183Z,-3.40
2018-02-18T06:38:34.135Z,-3.44
2018-02-18T06:39:34.085Z,-3.34
2018-02-18T06:40:34.434Z,-3.25
2018-02-18T06:41:33.982Z,-3.30
2018-02-18T06:42:33.934Z,-3.28
2018-02-18T06:43:33.882Z,-3.22
2018-02-18T06:44:33.838Z,-3.18
2018-02-18T06:45:33.787Z,-3.12
2018-02-18T06:46:34.032Z,-3.21
2018-02-18T06:47:33.680Z,-3.12
2018-02-18T06:48:33.671Z,-3.04
2018-02-18T06:49:33.578Z,-3.10
2018-02-18T06:50:33.529Z,-3.02
2018-02-18T06:51:33.481Z,-3.08
2018-02-18T06:52:33.731Z,-3.08
2018-02-18T06:53:33.380Z,-3.04
2018-02-18T06:54:33.331Z,-2.93
2018-02-18T06:55:33.282Z,-2.87
2018-02-18T06:56:33.233Z,-2.80
2018-02-18T06:57:33.382Z,-2.83
2018-02-18T06:58:33.130Z,-2.65
2018-02-18T06:59:33.378Z,-2.64
2018-02-18T07:00:33.650Z,-2.59
2018-02-18T07:02:33.239Z,-2.62
2018-02-18T07:03:34.417Z,-2.53
2018-02-18T07:04:33.000Z,-2.48
2018-02-18T07:05:32.928Z,-2.61
2018-02-18T07:06:35.871Z,-2.58
2018-02-18T07:07:36.360Z,-2.66
2018-02-18T07:08:36.223Z,-2.59
2018-02-18T07:09:35.997Z,-2.64
2018-02-18T07:10:33.347Z,-2.62
2018-02-18T07:11:32.473Z,-2.61
2018-02-18T07:12:32.421Z,-2.62
2018-02-18T07:13:32.673Z,-2.59
2018-02-18T07:14:32.322Z,-2.68
2018-02-18T07:15:32.294Z,-2.65
2018-02-18T07:16:32.226Z,-2.59
2018-02-18T07:17:32.174Z,-2.66
2018-02-18T07:18:32.123Z,-2.62
2018-02-18T07:19:32.073Z,-2.51
2018-02-18T07:20:32.322Z,-2.48
2018-02-18T07:21:31.971Z,-2.33
2018-02-18T07:22:31.922Z,-2.46
2018-02-18T07:23:31.873Z,-2.38
2018-02-18T07:24:31.829Z,-2.44
2018-02-18T07:25:31.836Z,-2.41
2018-02-18T07:26:31.727Z,-2.44
2018-02-18T07:27:31.976Z,-2.46
2018-02-18T07:28:31.625Z,-2.40
2018-02-18T07:29:31.576Z,-2.35
2018-02-18T07:30:31.549Z,-2.29
2018-02-18T07:31:31.476Z,-1.83
2018-02-18T07:32:31.428Z,-1.26
2018-02-18T07:33:31.678Z,-0.60
2018-02-18T07:34:31.329Z,-0.05
2018-02-18T07:35:31.280Z,0.34
2018-02-18T07:36:31.227Z,0.51
2018-02-18T07:37:31.179Z,0.67
2018-02-18T07:38:31.130Z,0.86
2018-02-18T07:39:31.382Z,1.04
2018-02-18T07:40:31.034Z,1.47
2018-02-18T07:41:30.985Z,1.85
2018-02-18T07:42:30.937Z,1.75
2018-02-18T07:43:30.939Z,2.09
2018-02-18T07:44:30.848Z,2.40
2018-02-18T07:45:31.095Z,2.68
2018-02-18T07:46:30.750Z,2.66
2018-02-18T07:47:30.702Z,3.20
2018-02-18T07:48:30.663Z,3.26
2018-02-18T07:49:30.658Z,3.41
2018-02-18T07:50:30.564Z,3.68
2018-02-18T07:51:30.817Z,3.75
2018-02-18T07:52:30.501Z,3.67
2018-02-18T07:53:30.439Z,4.08
2018-02-18T07:54:30.382Z,4.32
2018-02-18T07:55:30.392Z,4.51
2018-02-18T07:56:30.292Z,4.84
2018-02-18T07:57:30.549Z,5.06
2018-02-18T07:58:30.207Z,4.84
2018-02-18T07:59:30.165Z,4.56
2018-02-18T08:00:30.117Z,4.79
2018-02-18T08:01:30.073Z,4.25
2018-02-18T08:02:30.032Z,4.62
2018-02-18T08:03:30.290Z,5.08
2018-02-18T08:04:30.061Z,5.52
2018-02-18T08:05:29.960Z,5.96
2018-02-18T08:06:29.912Z,6.28
2018-02-18T08:07:29.889Z,6.60
2018-02-18T08:08:29.832Z,6.79
2018-02-18T08:09:29.734Z,7.14
2018-02-18T08:10:29.998Z,7.32
2018-02-18T08:11:29.678Z,7.67
2018-02-18T08:12:29.604Z,7.37
2018-02-18T08:13:29.564Z,6.93
2018-02-18T08:14:29.562Z,7.24
2018-02-18T08:15:29.604Z,7.39
2018-02-18T08:16:29.559Z,7.39
2018-02-18T08:17:29.398Z,7.67
2018-02-18T08:19:29.318Z,8.34
2018-02-18T08:20:29.277Z,8.14
2018-02-18T08:21:29.290Z,8.24
2018-02-18T08:22:29.197Z,7.99
2018-02-18T08:23:29.457Z,7.33
2018-02-18T08:24:29.115Z,7.08
2018-02-18T08:25:29.076Z,6.82
2018-02-18T08:26:29.035Z,7.45
2018-02-18T08:27:28.997Z,7.84
2018-02-18T08:28:28.957Z,8.39
2018-02-18T08:29:28.916Z,8.80
2018-02-18T08:30:29.179Z,8.91
2018-02-18T08:31:28.892Z,9.30
2018-02-18T08:32:28.803Z,9.73
2018-02-18T08:33:28.763Z,9.04
2018-02-18T08:34:28.722Z,9.17
2018-02-18T08:35:28.684Z,9.67
2018-02-18T08:36:28.643Z,10.26
2018-02-18T08:37:29.007Z,10.84
2018-02-18T08:38:28.569Z,11.08
2018-02-18T08:39:28.530Z,10.81
2018-02-18T08:40:28.490Z,11.01
2018-02-18T08:41:28.463Z,11.54
2018-02-18T08:42:28.414Z,11.78
2018-02-18T08:43:28.476Z,11.90
2018-02-18T08:44:28.646Z,12.16
2018-02-18T08:45:28.302Z,12.22
2018-02-18T08:46:28.265Z,12.08
2018-02-18T08:47:28.228Z,11.41
2018-02-18T08:48:28.239Z,11.59
2018-02-18T08:49:28.160Z,10.93
2018-02-18T08:50:28.419Z,9.70
2018-02-18T08:51:28.085Z,8.83
2018-02-18T08:52:28.043Z,8.83
2018-02-18T08:53:28.012Z,9.41
2018-02-18T08:54:27.971Z,10.07
2018-02-18T08:55:27.933Z,10.06
2018-02-18T08:56:28.196Z,10.72
2018-02-18T08:57:27.866Z,11.45
2018-02-18T08:58:27.829Z,10.78
2018-02-18T08:59:27.789Z,10.88
2018-02-18T09:00:27.748Z,11.26
2018-02-18T09:01:27.714Z,11.53
2018-02-18T09:02:27.978Z,10.66
2018-02-18T09:03:27.641Z,11.06
2018-02-18T09:04:27.807Z,11.24
2018-02-18T09:05:27.570Z,10.69
2018-02-18T09:06:27.533Z,10.84
2018-02-18T09:07:27.496Z,11.79
2018-02-18T09:08:27.766Z,12.18
2018-02-18T09:09:27.424Z,11.48
2018-02-18T09:10:27.441Z,11.13
2018-02-18T09:11:27.354Z,11.59
2018-02-18T09:12:27.322Z,11.90
2018-02-18T09:13:27.283Z,10.78
2018-02-18T09:14:27.552Z,10.86
2018-02-18T09:15:27.265Z,11.93
2018-02-18T09:16:27.264Z,11.69
2018-02-18T09:17:27.152Z,12.01
2018-02-18T09:18:27.246Z,11.88
2018-02-18T09:19:27.074Z,11.01
2018-02-18T09:20:27.038Z,10.51
2018-02-18T09:21:27.307Z,10.68
2018-02-18T09:22:27.023Z,11.12
2018-02-18T09:23:26.931Z,11.24
2018-02-18T09:24:26.895Z,11.19
2018-02-18T09:25:26.862Z,10.73
2018-02-18T09:26:27.012Z,11.39
2018-02-18T09:27:26.791Z,11.38
2018-02-18T09:28:27.144Z,11.33
2018-02-18T09:29:26.722Z,11.12
2018-02-18T09:30:26.685Z,11.20
2018-02-18T09:31:26.651Z,11.48
2018-02-18T09:32:26.615Z,11.62
2018-02-18T09:33:26.586Z,11.05
2018-02-18T09:34:26.549Z,11.77
2018-02-18T09:35:26.812Z,12.15
2018-02-18T09:36:26.480Z,12.37
2018-02-18T09:37:26.443Z,12.18
2018-02-18T09:38:26.410Z,12.59
2018-02-18T09:39:26.374Z,12.43
2018-02-18T09:40:26.342Z,11.49
2018-02-18T09:41:26.303Z,11.90
2018-02-18T09:42:26.570Z,12.38
2018-02-18T09:43:26.237Z,12.61
2018-02-18T09:44:26.205Z,12.98
2018-02-18T09:45:26.167Z,13.91
2018-02-18T09:46:26.134Z,12.41
2018-02-18T09:47:26.100Z,12.55
2018-02-18T09:48:26.069Z,11.78
2018-02-18T09:49:26.333Z,11.75
2018-02-18T09:50:26.005Z,11.13
2018-02-18T09:51:25.968Z,10.69
2018-02-18T09:52:25.944Z,10.52
2018-02-18T09:53:25.903Z,9.83
2018-02-18T09:54:25.880Z,10.47
2018-02-18T09:55:25.836Z,11.48
2018-02-18T09:56:26.108Z,12.29
2018-02-18T09:57:25.778Z,12.05
2018-02-18T09:58:25.745Z,11.72
2018-02-18T09:59:25.700Z,12.36
2018-02-18T10:00:25.666Z,12.84
2018-02-18T10:01:25.633Z,12.37
2018-02-18T10:02:25.949Z,12.37
2018-02-18T10:03:25.634Z,11.19
2018-02-18T10:04:25.541Z,12.23
2018-02-18T10:05:25.500Z,12.38
2018-02-18T10:06:25.468Z,12.33
2018-02-18T10:07:25.437Z,12.44
2018-02-18T10:08:25.800Z,12.40
2018-02-18T10:09:25.367Z,12.38
2018-02-18T10:10:25.337Z,12.80
2018-02-18T10:11:25.299Z,12.58
2018-02-18T10:12:25.277Z,12.07
2018-02-18T10:13:25.238Z,12.41
2018-02-18T10:14:25.512Z,12.74
2018-02-18T10:15:25.171Z,12.12
2018-02-18T10:16:25.143Z,12.34
2018-02-18T10:17:25.144Z,12.79
2018-02-18T10:18:25.074Z,12.43
2018-02-18T10:19:25.040Z,13.12
2018-02-18T10:20:25.308Z,13.13
2018-02-18T10:21:25.006Z,11.20
2018-02-18T10:22:24.943Z,11.46
2018-02-18T10:23:24.911Z,10.81
2018-02-18T10:24:24.881Z,11.81
2018-02-18T10:25:24.854Z,11.70
2018-02-18T10:26:25.114Z,11.75
2018-02-18T10:27:24.779Z,10.62
2018-02-18T10:28:24.747Z,11.16
2018-02-18T10:29:24.716Z,11.54
2018-02-18T10:30:24.689Z,12.12
2018-02-18T10:31:24.650Z,11.62
2018-02-18T10:32:24.916Z,12.04
2018-02-18T10:33:24.587Z,11.67
2018-02-18T10:34:24.555Z,11.66
2018-02-18T10:35:24.522Z,10.72
2018-02-18T10:36:24.487Z,11.87
2018-02-18T10:37:24.454Z,11.20
2018-02-18T10:38:24.425Z,11.72
2018-02-18T10:39:24.691Z,11.72
2018-02-18T10:40:24.357Z,12.84
2018-02-18T10:41:24.328Z,12.89
2018-02-18T10:42:24.293Z,12.99
2018-02-18T10:43:24.263Z,12.89
2018-02-18T10:44:24.234Z,13.59
2018-02-18T10:45:24.199Z,13.79
2018-02-18T10:46:24.464Z,13.81
2018-02-18T10:47:24.133Z,13.13
2018-02-18T10:48:24.103Z,11.88
2018-02-18T10:49:24.126Z,12.48
2018-02-18T10:50:24.041Z,12.01
2018-02-18T10:51:24.010Z,11.75
2018-02-18T10:52:23.976Z,10.76
2018-02-18T10:53:24.242Z,11.87
2018-02-18T10:54:23.911Z,11.24
2018-02-18T10:55:23.979Z,12.34
2018-02-18T10:56:23.850Z,12.11
2018-02-18T10:57:23.816Z,11.81
2018-02-18T10:58:23.784Z,11.31
2018-02-18T10:59:23.761Z,11.17
2018-02-18T11:00:24.021Z,11.59
2018-02-18T11:01:23.740Z,11.17
2018-02-18T11:02:23.655Z,11.77
2018-02-18T11:03:23.622Z,11.64
2018-02-18T11:04:23.591Z,11.36
2018-02-18T11:05:23.607Z,11.90
2018-02-18T11:06:23.527Z,10.99
2018-02-18T11:07:23.793Z,10.57
2018-02-18T11:08:23.468Z,10.90
2018-02-18T11:09:23.427Z,10.49
2018-02-18T11:10:23.395Z,10.90
2018-02-18T11:11:23.364Z,10.55
2018-02-18T11:12:23.377Z,10.55
2018-02-18T11:13:23.298Z,11.02
2018-02-18T11:14:23.563Z,11.85
2018-02-18T11:15:23.229Z,10.76
2018-02-18T11:16:23.202Z,11.77
2018-02-18T11:17:23.164Z,11.67
2018-02-18T11:18:23.335Z,12.22
2018-02-18T11:19:23.106Z,12.37
2018-02-18T11:20:23.364Z,11.84
2018-02-18T11:21:23.038Z,11.81
2018-02-18T11:22:23.002Z,12.95
2018-02-18T11:23:23.054Z,12.56
2018-02-18T11:24:22.986Z,12.92
2018-02-18T11:25:22.964Z,11.35
2018-02-18T11:26:23.176Z,11.60
2018-02-18T11:27:22.843Z,12.21
2018-02-18T11:28:22.802Z,12.67
2018-02-18T11:29:22.774Z,13.06
2018-02-18T11:30:22.746Z,13.41
2018-02-18T11:31:22.707Z,12.38
2018-02-18T11:32:22.983Z,11.06
2018-02-18T11:33:22.643Z,11.59
2018-02-18T11:34:22.614Z,13.51
2018-02-18T11:35:22.786Z,13.31
2018-02-18T11:36:22.545Z,11.81
2018-02-18T11:37:22.515Z,12.23
2018-02-18T11:38:22.782Z,12.55
2018-02-18T11:39:22.451Z,12.99
2018-02-18T11:40:22.418Z,12.81
2018-02-18T11:41:22.434Z,13.69
2018-02-18T11:42:22.359Z,12.73
2018-02-18T11:43:22.319Z,12.81
2018-02-18T11:44:22.587Z,12.44
2018-02-18T11:45:22.254Z,11.72
2018-02-18T11:46:22.225Z,11.69
2018-02-18T11:47:22.191Z,11.77
2018-02-18T11:48:22.157Z,11.56
2018-02-18T11:49:22.124Z,11.79
2018-02-18T11:50:22.395Z,12.22
2018-02-18T11:51:22.065Z,13.24
2018-02-18T11:52:22.037Z,12.92
2018-02-18T11:53:21.996Z,12.48
2018-02-18T11:54:21.963Z,13.24
2018-02-18T11:55:21.929Z,12.84
2018-02-18T11:56:21.896Z,12.94
2018-02-18T11:57:23.168Z,12.91
2018-02-18T11:58:21.880Z,12.33
2018-02-18T11:59:21.802Z,12.41
2018-02-18T12:00:21.786Z,12.34
2018-02-18T12:01:21.735Z,10.78
2018-02-18T12:03:21.668Z,11.66
2018-02-18T12:04:21.939Z,10.57
2018-02-18T12:05:21.603Z,10.72
2018-02-18T12:06:21.569Z,11.16
2018-02-18T12:07:21.599Z,11.11
2018-02-18T12:08:21.503Z,10.72
2018-02-18T12:09:21.466Z,10.44
2018-02-18T12:10:21.428Z,11.38
2018-02-18T12:11:21.695Z,11.53
2018-02-18T12:12:21.360Z,11.90
2018-02-18T12:13:21.329Z,12.43
2018-02-18T12:14:21.291Z,12.05
2018-02-18T12:15:21.259Z,12.33
2018-02-18T12:16:21.223Z,12.43
2018-02-18T12:17:21.188Z,12.43
2018-02-18T12:18:21.630Z,12.71
2018-02-18T12:19:21.372Z,11.97
2018-02-18T12:20:21.092Z,11.84
2018-02-18T12:21:21.050Z,11.28
2018-02-18T12:22:21.013Z,11.56
2018-02-18T12:23:20.985Z,12.66
2018-02-18T12:24:20.943Z,13.36
2018-02-18T12:25:21.216Z,13.61
2018-02-18T12:26:20.875Z,12.62
2018-02-18T12:27:20.905Z,13.22
2018-02-18T12:28:20.806Z,12.91
2018-02-18T12:29:20.773Z,13.79
2018-02-18T12:30:20.741Z,13.93
2018-02-18T12:31:20.717Z,12.94
2018-02-18T12:32:20.975Z,13.73
2018-02-18T12:33:20.838Z,12.98
2018-02-18T12:34:20.604Z,13.62
2018-02-18T12:35:20.573Z,12.70
2018-02-18T12:36:20.566Z,12.52
2018-02-18T12:37:20.505Z,11.88
2018-02-18T12:38:20.770Z,12.34
2018-02-18T12:39:20.485Z,12.94
2018-02-18T12:40:20.403Z,12.63
2018-02-18T12:41:20.370Z,12.36
2018-02-18T12:42:20.333Z,11.67
2018-02-18T12:43:20.300Z,10.63
2018-02-18T12:44:20.564Z,11.31
2018-02-18T12:45:20.233Z,11.27
2018-02-18T12:46:20.246Z,11.85
2018-02-18T12:47:20.210Z,12.30
2018-02-18T12:48:20.126Z,12.12
2018-02-18T12:49:20.109Z,11.48
2018-02-18T12:50:20.357Z,11.51
2018-02-18T12:51:20.075Z,11.51
2018-02-18T12:52:20.044Z,11.81
2018-02-18T12:53:19.951Z,11.72
2018-02-18T12:54:19.916Z,11.44
2018-02-18T12:55:19.887Z,12.19
2018-02-18T12:56:20.148Z,12.44
2018-02-18T12:57:19.810Z,12.13